createdAt,value
2018-09-21T00:00:31.110Z,19.80
2018-09-21T00:02:59.664Z,19.80
2018-09-21T00:05:28.012Z,19.80
2018-09-21T00:07:56.408Z,19.80
2018-09-21T00:10:24.716Z,19.70
2018-09-21T00:12:53.096Z,19.70
2018-09-21T00:15:21.392Z,19.70
2018-09-21T00:17:49.747Z,19.60
2018-09-21T00:20:18.078Z,19.50
2018-09-21T00:22:46.378Z,19.50
2018-09-21T00:25:14.782Z,19.40
2018-09-21T00:27:43.093Z,19.40
2018-09-21T00:30:11.542Z,19.40
2018-09-21T00:32:39.961Z,19.40
2018-09-21T00:35:08.368Z,19.30
2018-09-21T00:37:36.721Z,19.20
2018-09-21T00:40:05.093Z,19.30
2018-09-21T00:42:33.430Z,19.30
2018-09-21T00:45:01.823Z,19.30
2018-09-21T00:47:30.127Z,19.40
2018-09-21T00:49:58.434Z,19.40
2018-09-21T00:52:26.745Z,19.50
2018-09-21T00:54:55.052Z,19.40
2018-09-21T00:57:23.528Z,19.40
2018-09-21T00:59:51.798Z,19.40
2018-09-21T01:02:20.253Z,19.40
2018-09-21T01:04:48.605Z,19.40
2018-09-21T01:07:16.951Z,19.40
2018-09-21T01:09:45.265Z,19.50
2018-09-21T01:12:13.603Z,19.50
2018-09-21T01:14:41.992Z,19.50
2018-09-21T01:17:10.376Z,19.50
2018-09-21T01:19:38.680Z,19.40
2018-09-21T01:22:06.995Z,19.40
2018-09-21T01:24:35.391Z,19.40
2018-09-21T01:27:03.811Z,19.30
2018-09-21T01:29:32.199Z,19.30
2018-09-21T01:32:00.532Z,19.40
2018-09-21T01:34:29.054Z,19.50
2018-09-21T01:36:57.445Z,19.50
2018-09-21T01:39:25.889Z,19.50
2018-09-21T01:41:54.188Z,19.40
2018-09-21T01:44:22.541Z,19.30
2018-09-21T01:46:50.843Z,19.30
2018-09-21T01:49:19.180Z,19.30
2018-09-21T01:51:47.456Z,19.20
2018-09-21T01:54:15.918Z,19.30
2018-09-21T01:56:44.264Z,19.20
2018-09-21T01:59:12.607Z,19.20
2018-09-21T02:01:40.958Z,19.10
2018-09-21T02:04:09.278Z,19.20
2018-09-21T02:06:37.798Z,19.20
2018-09-21T02:09:07.795Z,19.30
2018-09-21T02:11:36.127Z,19.30
2018-09-21T02:14:04.488Z,19.40
2018-09-21T02:16:32.827Z,19.30
2018-09-21T02:19:01.136Z,19.40
2018-09-21T02:21:29.464Z,19.50
2018-09-21T02:23:57.921Z,19.70
2018-09-21T02:26:26.341Z,19.80
2018-09-21T02:28:54.787Z,19.90
2018-09-21T02:31:23.214Z,19.90
2018-09-21T02:33:51.534Z,19.80
2018-09-21T02:36:19.877Z,19.80
2018-09-21T02:38:48.202Z,19.90
2018-09-21T02:41:16.623Z,19.90
2018-09-21T02:43:44.923Z,19.90
2018-09-21T02:46:13.223Z,19.90
2018-09-21T02:48:41.646Z,20.10
2018-09-21T02:51:09.930Z,20.20
2018-09-21T02:53:38.363Z,20.20
2018-09-21T02:56:06.677Z,20.30
2018-09-21T02:58:35.015Z,20.30
2018-09-21T03:01:03.424Z,20.40
2018-09-21T03:03:31.839Z,20.50
2018-09-21T03:06:00.348Z,20.50
2018-09-21T03:08:28.760Z,20.70
2018-09-21T03:10:57.431Z,20.70
2018-09-21T03:13:26.134Z,20.70
2018-09-21T03:15:54.508Z,20.80
2018-09-21T03:18:23.063Z,20.90
2018-09-21T03:20:51.408Z,21.00
2018-09-21T03:23:19.816Z,21.00
2018-09-21T03:25:48.100Z,20.90
2018-09-21T03:28:16.823Z,20.90
2018-09-21T03:30:45.358Z,21.00
2018-09-21T03:33:13.705Z,21.10
2018-09-21T03:35:42.166Z,21.00
2018-09-21T03:38:10.988Z,21.10
2018-09-21T03:40:39.761Z,21.10
2018-09-21T03:43:09.415Z,21.10
2018-09-21T03:45:38.373Z,21.20
2018-09-21T03:48:06.685Z,21.20
2018-09-21T03:50:35.171Z,21.20
2018-09-21T03:53:03.714Z,21.20
2018-09-21T03:55:32.047Z,21.20
2018-09-21T03:58:00.352Z,21.20
2018-09-21T04:00:28.758Z,21.20
2018-09-21T04:02:57.381Z,21.30
2018-09-21T04:05:25.692Z,21.30
2018-09-21T04:07:54.072Z,21.30
2018-09-21T04:10:22.366Z,21.30
2018-09-21T04:12:50.705Z,21.30
2018-09-21T04:15:19.018Z,21.30
2018-09-21T04:17:47.310Z,21.30
2018-09-21T04:20:15.608Z,21.30
2018-09-21T04:22:48.109Z,21.30
2018-09-21T04:25:16.465Z,21.30
2018-09-21T04:27:44.921Z,21.40
2018-09-21T04:30:13.522Z,21.40
2018-09-21T04:32:41.807Z,21.50
2018-09-21T04:35:10.035Z,21.60
2018-09-21T04:37:38.392Z,21.60
2018-09-21T04:40:06.763Z,21.70
2018-09-21T04:42:35.165Z,21.80
2018-09-21T04:45:03.442Z,21.90
2018-09-21T04:47:31.985Z,21.90
2018-09-21T04:50:00.320Z,21.90
2018-09-21T04:52:28.652Z,21.90
2018-09-21T04:54:56.947Z,22.00
2018-09-21T04:57:25.325Z,22.10
2018-09-21T04:59:53.736Z,22.10
2018-09-21T05:02:22.058Z,22.20
2018-09-21T05:04:50.423Z,22.20
2018-09-21T05:07:18.743Z,22.20
2018-09-21T05:09:47.030Z,22.20
2018-09-21T05:12:15.405Z,22.20
2018-09-21T05:14:43.684Z,22.20
2018-09-21T05:17:12.118Z,22.30
2018-09-21T05:19:40.505Z,22.20
2018-09-21T05:22:08.913Z,22.20
2018-09-21T05:24:37.302Z,22.20
2018-09-21T05:27:05.705Z,22.20
2018-09-21T05:29:34.296Z,22.20
2018-09-21T05:32:02.707Z,22.20
2018-09-21T05:34:31.140Z,22.20
2018-09-21T05:36:59.517Z,22.20
2018-09-21T05:39:27.834Z,22.20
2018-09-21T05:41:56.208Z,22.10
2018-09-21T05:44:24.527Z,22.20
2018-09-21T05:46:52.904Z,22.20
2018-09-21T05:49:21.266Z,22.20
2018-09-21T05:51:49.537Z,22.40
2018-09-21T05:54:17.855Z,22.60
2018-09-21T05:56:47.368Z,22.50
2018-09-21T05:59:15.731Z,22.40
2018-09-21T06:01:44.055Z,22.40
2018-09-21T06:04:12.458Z,22.40
2018-09-21T06:06:40.939Z,22.40
2018-09-21T06:09:11.089Z,22.30
2018-09-21T06:11:39.874Z,22.30
2018-09-21T06:14:08.416Z,22.30
2018-09-21T06:16:36.679Z,22.30
2018-09-21T06:19:05.219Z,22.20
2018-09-21T06:21:33.744Z,22.30
2018-09-21T06:24:02.079Z,22.30
2018-09-21T06:26:30.436Z,22.30
2018-09-21T06:28:58.793Z,22.30
2018-09-21T06:31:27.200Z,22.30
2018-09-21T06:33:55.585Z,22.30
2018-09-21T06:36:24.056Z,22.30
2018-09-21T06:38:52.392Z,22.40
2018-09-21T06:41:20.854Z,22.40
2018-09-21T06:43:49.253Z,22.50
2018-09-21T06:46:17.537Z,22.40
2018-09-21T06:48:46.136Z,22.50
2018-09-21T06:51:14.700Z,22.40
2018-09-21T06:53:43.120Z,22.50
2018-09-21T06:56:11.482Z,22.50
2018-09-21T06:58:39.880Z,22.50
2018-09-21T07:01:08.195Z,22.60
2018-09-21T07:03:36.512Z,22.70
2018-09-21T07:06:04.951Z,22.90
2018-09-21T07:08:33.504Z,22.90
2018-09-21T07:11:01.894Z,22.90
2018-09-21T07:13:30.342Z,23.00
2018-09-21T07:15:58.771Z,22.90
2018-09-21T07:18:27.236Z,23.00
2018-09-21T07:20:55.603Z,22.90
2018-09-21T07:23:24.003Z,22.70
2018-09-21T07:25:52.435Z,22.60
2018-09-21T07:28:20.955Z,22.60
2018-09-21T07:30:49.332Z,22.60
2018-09-21T07:33:17.672Z,22.60
2018-09-21T07:35:46.225Z,22.60
2018-09-21T07:38:14.694Z,22.60
2018-09-21T07:40:43.090Z,22.60
2018-09-21T07:43:11.628Z,22.60
2018-09-21T07:45:40.085Z,22.60
2018-09-21T07:48:08.528Z,22.70
2018-09-21T07:50:37.663Z,22.70
2018-09-21T07:53:05.954Z,22.70
2018-09-21T07:55:34.336Z,22.80
2018-09-21T07:58:03.248Z,22.90
2018-09-21T08:00:31.703Z,22.90
2018-09-21T08:03:00.128Z,22.80
2018-09-21T08:05:32.603Z,22.70
2018-09-21T08:08:01.772Z,22.60
2018-09-21T08:10:30.231Z,22.60
2018-09-21T08:12:58.964Z,22.60
2018-09-21T08:15:27.237Z,22.60
2018-09-21T08:17:55.696Z,22.50
2018-09-21T08:20:24.092Z,22.40
2018-09-21T08:22:52.570Z,22.40
2018-09-21T08:25:21.000Z,22.50
2018-09-21T08:27:49.564Z,22.50
2018-09-21T08:30:18.184Z,22.60
2018-09-21T08:32:46.659Z,22.60
2018-09-21T08:35:15.249Z,22.50
2018-09-21T08:37:43.870Z,22.60
2018-09-21T08:40:12.222Z,22.70
2018-09-21T08:42:40.579Z,22.80
2018-09-21T08:45:09.676Z,22.90
2018-09-21T08:47:38.080Z,22.90
2018-09-21T08:50:07.519Z,22.90
2018-09-21T08:52:36.389Z,23.00
2018-09-21T08:55:04.944Z,23.00
2018-09-21T08:57:33.279Z,22.90
2018-09-21T09:00:01.923Z,22.90
2018-09-21T09:02:30.198Z,22.80
2018-09-21T09:04:58.870Z,22.60
2018-09-21T09:07:27.556Z,22.40
2018-09-21T09:09:56.230Z,22.40
2018-09-21T09:12:24.827Z,22.30
2018-09-21T09:14:53.294Z,22.20
2018-09-21T09:17:21.679Z,22.10
2018-09-21T09:19:50.057Z,21.80
2018-09-21T09:22:18.443Z,21.50
2018-09-21T09:24:46.822Z,21.10
2018-09-21T09:27:15.335Z,20.60
2018-09-21T09:29:43.877Z,19.80
2018-09-21T09:32:12.262Z,19.00
2018-09-21T09:34:40.619Z,18.40
2018-09-21T09:37:09.027Z,18.00
2018-09-21T09:39:37.600Z,17.80
2018-09-21T09:42:05.967Z,17.40
2018-09-21T09:44:34.335Z,16.80
2018-09-21T09:47:02.767Z,15.80
2018-09-21T09:49:31.156Z,15.40
2018-09-21T09:51:59.603Z,15.00
2018-09-21T09:54:28.048Z,14.60
2018-09-21T09:56:56.351Z,14.50
2018-09-21T09:59:24.705Z,14.40
2018-09-21T10:01:53.222Z,14.30
2018-09-21T10:04:21.775Z,14.30
2018-09-21T10:06:50.123Z,14.30
2018-09-21T10:09:18.591Z,14.20
2018-09-21T10:11:47.137Z,14.20
2018-09-21T10:14:15.623Z,14.20
2018-09-21T10:16:43.991Z,14.20
2018-09-21T10:19:12.357Z,14.30
2018-09-21T10:21:40.892Z,14.30
2018-09-21T10:24:09.362Z,14.40
2018-09-21T10:26:37.837Z,14.40
2018-09-21T10:29:06.214Z,14.40
2018-09-21T10:31:34.685Z,14.40
2018-09-21T10:34:03.035Z,14.30
2018-09-21T10:36:31.477Z,14.30
2018-09-21T10:39:00.156Z,14.20
2018-09-21T10:41:28.560Z,14.20
2018-09-21T10:43:57.034Z,14.10
2018-09-21T10:46:25.447Z,14.10
2018-09-21T10:48:54.022Z,14.10
2018-09-21T10:51:22.387Z,14.20
2018-09-21T10:53:50.708Z,14.20
2018-09-21T10:56:19.132Z,14.20
2018-09-21T10:58:47.540Z,14.20
2018-09-21T11:01:15.918Z,14.30
2018-09-21T11:03:44.243Z,14.40
2018-09-21T11:06:12.752Z,14.60
2018-09-21T11:08:41.171Z,14.60
2018-09-21T11:11:09.727Z,14.70
2018-09-21T11:13:38.263Z,14.80
2018-09-21T11:16:06.914Z,15.00
2018-09-21T11:18:35.266Z,14.90
2018-09-21T11:21:03.656Z,15.00
2018-09-21T11:23:32.152Z,15.00
2018-09-21T11:26:00.543Z,15.00
2018-09-21T11:28:28.981Z,15.10
2018-09-21T11:30:57.394Z,15.10
2018-09-21T11:33:25.903Z,15.20
2018-09-21T11:35:54.389Z,15.30
2018-09-21T11:38:22.748Z,15.40
2018-09-21T11:40:51.244Z,15.40
2018-09-21T11:43:19.595Z,15.30
2018-09-21T11:45:48.054Z,15.40
2018-09-21T11:48:16.492Z,15.40
2018-09-21T11:50:45.394Z,15.40
2018-09-21T11:53:14.034Z,15.70
2018-09-21T11:55:42.460Z,16.00
2018-09-21T11:58:10.853Z,16.10
2018-09-21T12:00:39.530Z,16.10
2018-09-21T12:03:07.946Z,16.00
2018-09-21T12:05:36.571Z,15.80
2018-09-21T12:08:04.893Z,15.80
2018-09-21T12:10:33.420Z,15.90
2018-09-21T12:13:01.771Z,15.90
2018-09-21T12:15:30.270Z,16.10
2018-09-21T12:17:59.305Z,16.30
2018-09-21T12:20:27.771Z,16.60
2018-09-21T12:22:56.293Z,16.70
2018-09-21T12:25:24.972Z,16.70
2018-09-21T12:27:53.381Z,16.80
2018-09-21T12:30:22.506Z,16.80
2018-09-21T12:32:51.133Z,16.80
2018-09-21T12:35:19.922Z,16.90
2018-09-21T12:37:48.415Z,16.90
2018-09-21T12:40:17.041Z,16.90
2018-09-21T12:42:45.644Z,16.90
2018-09-21T12:45:14.271Z,17.00
2018-09-21T12:47:42.763Z,17.00
2018-09-21T12:50:11.305Z,17.10
2018-09-21T12:52:39.806Z,17.20
2018-09-21T12:55:08.557Z,17.20
2018-09-21T12:57:36.971Z,17.20
2018-09-21T13:00:06.741Z,17.20
2018-09-21T13:02:36.062Z,17.30
2018-09-21T13:05:04.479Z,17.20
2018-09-21T13:07:32.953Z,17.30
2018-09-21T13:10:01.687Z,17.40
2018-09-21T13:12:31.088Z,17.30
2018-09-21T13:14:59.798Z,17.30
2018-09-21T13:17:28.214Z,17.40
2018-09-21T13:19:56.636Z,17.40
2018-09-21T13:22:25.245Z,17.20
2018-09-21T13:24:53.764Z,16.90
2018-09-21T13:27:22.181Z,16.80
2018-09-21T13:29:50.767Z,16.80
2018-09-21T13:32:19.512Z,16.70
2018-09-21T13:34:48.048Z,16.60
2018-09-21T13:37:16.476Z,16.70
2018-09-21T13:39:45.058Z,16.70
2018-09-21T13:42:13.681Z,16.80
2018-09-21T13:44:42.147Z,16.80
2018-09-21T13:47:10.633Z,16.80
2018-09-21T13:49:39.340Z,16.70
2018-09-21T13:52:07.978Z,16.80
2018-09-21T13:54:36.481Z,16.80
2018-09-21T13:57:04.874Z,16.90
2018-09-21T13:59:33.369Z,16.90
2018-09-21T14:02:02.139Z,16.90
2018-09-21T14:04:30.690Z,17.00
2018-09-21T14:06:59.261Z,17.00
2018-09-21T14:09:27.700Z,16.80
2018-09-21T14:11:56.143Z,16.80
2018-09-21T14:14:25.296Z,16.90
2018-09-21T14:16:53.905Z,17.00
2018-09-21T14:19:22.686Z,17.10
2018-09-21T14:21:51.681Z,17.10
2018-09-21T14:24:20.140Z,17.20
2018-09-21T14:26:48.744Z,17.20
2018-09-21T14:29:17.340Z,17.20
2018-09-21T14:31:46.038Z,17.30
2018-09-21T14:34:14.369Z,17.20
2018-09-21T14:36:43.276Z,17.30
2018-09-21T14:39:12.396Z,17.30
2018-09-21T14:41:40.917Z,17.30
2018-09-21T14:44:09.402Z,17.40
2018-09-21T14:46:38.332Z,17.50
2018-09-21T14:49:07.958Z,17.40
2018-09-21T14:51:36.763Z,17.30
2018-09-21T14:54:05.824Z,17.30
2018-09-21T14:56:34.588Z,17.30
2018-09-21T14:59:03.241Z,17.20
2018-09-21T15:01:31.761Z,17.10
2018-09-21T15:04:01.227Z,16.90
2018-09-21T15:06:29.888Z,16.80
2018-09-21T15:08:58.381Z,16.60
2018-09-21T15:11:26.855Z,16.50
2018-09-21T15:13:55.373Z,16.40
2018-09-21T15:16:23.903Z,16.40
2018-09-21T15:18:53.009Z,16.50
2018-09-21T15:21:21.460Z,16.50
2018-09-21T15:23:51.187Z,16.40
2018-09-21T15:26:21.770Z,16.40
2018-09-21T15:28:50.366Z,16.40
2018-09-21T15:31:18.812Z,16.40
2018-09-21T15:33:47.293Z,16.40
2018-09-21T15:36:15.723Z,16.30
2018-09-21T15:38:44.370Z,16.30
2018-09-21T15:41:12.710Z,16.30
2018-09-21T15:43:41.298Z,16.40
2018-09-21T15:46:09.670Z,16.40
2018-09-21T15:48:38.096Z,16.50
2018-09-21T15:51:06.898Z,16.40
2018-09-21T15:53:35.449Z,16.40
2018-09-21T15:56:04.096Z,16.30
2018-09-21T15:58:32.507Z,16.30
2018-09-21T16:01:00.916Z,16.30
2018-09-21T16:03:29.405Z,16.30
2018-09-21T16:05:57.963Z,16.30
2018-09-21T16:08:26.326Z,16.20
2018-09-21T16:10:54.718Z,16.20
2018-09-21T16:13:23.262Z,16.20
2018-09-21T16:15:51.717Z,16.20
2018-09-21T16:18:20.206Z,16.20
2018-09-21T16:20:49.553Z,16.20
2018-09-21T16:23:18.067Z,16.20
2018-09-21T16:25:46.568Z,16.30
2018-09-21T16:28:15.254Z,16.20
2018-09-21T16:30:43.813Z,16.20
2018-09-21T16:33:12.373Z,16.10
2018-09-21T16:35:40.867Z,16.10
2018-09-21T16:38:09.435Z,16.00
2018-09-21T16:40:38.197Z,16.00
2018-09-21T16:43:06.876Z,15.90
2018-09-21T16:45:35.273Z,15.90
2018-09-21T16:48:03.690Z,15.80
2018-09-21T16:50:33.527Z,15.70
2018-09-21T16:53:01.911Z,15.70
2018-09-21T16:55:30.297Z,15.70
2018-09-21T16:57:58.824Z,15.60
2018-09-21T17:00:27.333Z,15.50
2018-09-21T17:02:55.933Z,15.40
2018-09-21T17:05:24.420Z,15.40
2018-09-21T17:07:52.886Z,15.40
2018-09-21T17:10:21.335Z,15.30
2018-09-21T17:12:50.684Z,15.20
2018-09-21T17:15:19.233Z,15.10
2018-09-21T17:17:47.722Z,15.10
2018-09-21T17:20:16.281Z,14.90
2018-09-21T17:22:44.814Z,14.90
2018-09-21T17:25:13.288Z,14.80
2018-09-21T17:27:41.767Z,14.80
2018-09-21T17:30:10.510Z,14.70
2018-09-21T17:32:40.187Z,14.60
2018-09-21T17:35:08.805Z,14.50
2018-09-21T17:37:38.319Z,14.40
2018-09-21T17:40:07.018Z,14.20
2018-09-21T17:42:35.621Z,14.10
2018-09-21T17:45:04.194Z,14.00
2018-09-21T17:47:32.667Z,13.90
2018-09-21T17:50:01.159Z,13.80
2018-09-21T17:52:29.967Z,13.70
2018-09-21T17:54:58.508Z,13.70
2018-09-21T17:57:26.952Z,13.80
2018-09-21T17:59:55.503Z,13.90
2018-09-21T18:02:23.976Z,13.80
2018-09-21T18:04:52.529Z,13.90
2018-09-21T18:07:21.868Z,13.90
2018-09-21T18:09:51.947Z,13.90
2018-09-21T18:12:20.997Z,14.00
2018-09-21T18:14:50.252Z,14.00
2018-09-21T18:17:18.890Z,14.00
2018-09-21T18:19:48.265Z,14.00
2018-09-21T18:22:16.937Z,14.00
2018-09-21T18:24:45.663Z,14.10
2018-09-21T18:27:14.347Z,14.10
2018-09-21T18:29:42.802Z,14.10
2018-09-21T18:32:11.205Z,14.10
2018-09-21T18:34:39.731Z,14.20
2018-09-21T18:37:08.543Z,14.20
2018-09-21T18:39:37.228Z,14.10
2018-09-21T18:42:05.755Z,14.10
2018-09-21T18:44:34.755Z,14.00
2018-09-21T18:47:03.143Z,13.90
2018-09-21T18:49:31.609Z,13.90
2018-09-21T18:52:00.701Z,13.80
2018-09-21T18:54:29.241Z,13.90
2018-09-21T18:56:57.812Z,13.90
2018-09-21T18:59:26.542Z,13.90
2018-09-21T19:01:55.598Z,14.00
2018-09-21T19:04:24.585Z,14.10
2018-09-21T19:06:53.329Z,14.10
2018-09-21T19:09:21.904Z,14.20
2018-09-21T19:11:50.519Z,14.30
2018-09-21T19:14:19.202Z,14.20
2018-09-21T19:16:47.744Z,14.20
2018-09-21T19:19:16.310Z,14.20
2018-09-21T19:21:45.012Z,14.20
2018-09-21T19:24:13.770Z,14.20
2018-09-21T19:26:42.457Z,14.20
2018-09-21T19:29:11.100Z,14.20
2018-09-21T19:31:39.766Z,14.20
2018-09-21T19:34:08.473Z,14.20
2018-09-21T19:36:37.328Z,14.10
2018-09-21T19:39:10.452Z,14.00
2018-09-21T19:41:39.140Z,13.90
2018-09-21T19:44:07.947Z,13.80
2018-09-21T19:46:36.769Z,13.80
2018-09-21T19:49:05.614Z,13.80
2018-09-21T19:51:34.250Z,13.80
2018-09-21T19:54:02.876Z,13.80
2018-09-21T19:56:31.405Z,13.80
2018-09-21T19:59:00.011Z,13.90
2018-09-21T20:01:28.419Z,13.90
2018-09-21T20:03:56.788Z,13.90
2018-09-21T20:06:25.231Z,13.90
2018-09-21T20:08:53.667Z,13.90
2018-09-21T20:11:22.700Z,14.00
2018-09-21T20:13:51.174Z,14.00
2018-09-21T20:16:19.718Z,14.00
2018-09-21T20:18:48.227Z,14.00
2018-09-21T20:21:16.693Z,14.00
2018-09-21T20:23:45.177Z,13.90
2018-09-21T20:26:13.692Z,13.90
2018-09-21T20:28:42.109Z,14.00
2018-09-21T20:31:15.012Z,14.10
2018-09-21T20:33:43.642Z,14.10
2018-09-21T20:36:12.516Z,14.10
2018-09-21T20:38:41.058Z,14.10
2018-09-21T20:41:09.814Z,14.20
2018-09-21T20:43:38.550Z,14.20
2018-09-21T20:46:07.569Z,14.10
2018-09-21T20:48:36.543Z,14.10
2018-09-21T20:51:05.304Z,14.10
2018-09-21T20:53:33.893Z,14.10
2018-09-21T20:56:02.448Z,14.00
2018-09-21T20:58:30.840Z,14.10
2018-09-21T21:00:59.397Z,14.10
2018-09-21T21:03:28.005Z,14.10
2018-09-21T21:05:56.764Z,14.10
2018-09-21T21:08:25.177Z,14.10
2018-09-21T21:10:53.929Z,14.20
2018-09-21T21:13:22.667Z,14.10
2018-09-21T21:15:51.230Z,14.20
2018-09-21T21:18:20.360Z,14.20
2018-09-21T21:20:49.141Z,14.20
2018-09-21T21:23:17.712Z,14.10
2018-09-21T21:25:46.192Z,14.00
2018-09-21T21:28:14.815Z,14.00
2018-09-21T21:30:43.533Z,13.90
2018-09-21T21:33:12.273Z,13.90
2018-09-21T21:35:40.788Z,13.80
2018-09-21T21:38:09.263Z,13.90
2018-09-21T21:40:37.975Z,13.90
2018-09-21T21:43:06.893Z,13.60
2018-09-21T21:45:35.635Z,12.80
2018-09-21T21:48:04.112Z,12.10
2018-09-21T21:50:32.755Z,11.60
2018-09-21T21:53:01.172Z,11.40
2018-09-21T21:55:29.629Z,11.30
2018-09-21T21:57:58.115Z,11.20
2018-09-21T22:00:30.735Z,11.20
2018-09-21T22:02:59.293Z,11.20
2018-09-21T22:05:27.774Z,11.20
2018-09-21T22:07:56.564Z,11.20
2018-09-21T22:10:25.112Z,11.20
2018-09-21T22:12:57.855Z,11.20
2018-09-21T22:15:26.311Z,11.20
2018-09-21T22:17:55.253Z,11.20
2018-09-21T22:20:23.679Z,11.20
2018-09-21T22:22:52.166Z,11.20
2018-09-21T22:25:21.368Z,11.20
2018-09-21T22:27:49.784Z,11.20
2018-09-21T22:30:18.426Z,11.20
2018-09-21T22:32:46.960Z,11.20
2018-09-21T22:35:15.550Z,11.20
2018-09-21T22:37:44.224Z,11.30
2018-09-21T22:40:12.635Z,11.20
2018-09-21T22:42:41.120Z,11.20
2018-09-21T22:45:09.638Z,11.20
2018-09-21T22:47:38.188Z,11.20
2018-09-21T22:50:06.852Z,11.30
2018-09-21T22:52:35.368Z,11.20
2018-09-21T22:55:04.056Z,11.20
2018-09-21T22:57:32.641Z,11.20
2018-09-21T23:00:01.032Z,11.10
2018-09-21T23:02:29.517Z,11.10
2018-09-21T23:04:58.065Z,11.10
2018-09-21T23:07:26.575Z,11.10
2018-09-21T23:09:55.183Z,11.10
2018-09-21T23:12:23.759Z,11.00
2018-09-21T23:14:52.396Z,11.00
2018-09-21T23:17:20.982Z,10.90
2018-09-21T23:19:49.572Z,10.90
2018-09-21T23:22:18.051Z,11.00
2018-09-21T23:24:46.750Z,11.00
2018-09-21T23:27:15.156Z,11.00
2018-09-21T23:29:43.489Z,11.00
2018-09-21T23:32:12.322Z,11.00
2018-09-21T23:34:40.805Z,11.00
2018-09-21T23:37:09.436Z,10.90
2018-09-21T23:39:37.865Z,10.90
2018-09-21T23:42:06.276Z,11.00
2018-09-21T23:44:34.706Z,10.90
2018-09-21T23:47:03.365Z,11.00
2018-09-21T23:49:31.781Z,10.90
2018-09-21T23:52:00.105Z,10.90
2018-09-21T23:54:28.606Z,10.90
2018-09-21T23:56:56.985Z,10.80
2018-09-21T23:59:25.407Z,10.80
